Time;durP1;ratioP1;P1;durP2;ratioP2;P2;SDS_P1;SDS_P2;PMS_P1;PMS_P2;Temp;Humidity;BMP_temperature;BMP_pressure;BME280_temperature;BME280_humidity;BME280_pressure;Samples;Min_cycle;Max_cycle;Signal;HPM_P1;HPM_P2
2023/05/13 00:01:27;;;;;;;6.05;4.30;;;;;;;;;;5034064;28;20036;-80
2023/05/13 00:03:52;;;;;;;4.30;3.90;;;;;;;;;;5033784;28;20370;-79
2023/05/13 00:06:18;;;;;;;3.95;3.55;;;;;;;;;;5033787;28;20359;-79
2023/05/13 00:08:43;;;;;;;5.85;3.92;;;;;;;;;;5038180;28;20053;-79
2023/05/13 00:11:08;;;;;;;5.10;4.25;;;;;;;;;;5031686;28;20720;-78
2023/05/13 00:13:34;;;;;;;5.00;4.25;;;;;;;;;;5044663;28;20031;-79
2023/05/13 00:15:59;;;;;;;3.85;3.55;;;;;;;;;;5031278;28;20032;-78
2023/05/13 00:18:25;;;;;;;4.07;2.97;;;;;;;;;;5041901;28;20029;-80
2023/05/13 00:20:50;;;;;;;4.75;4.07;;;;;;;;;;5032682;28;20049;-79
2023/05/13 00:23:16;;;;;;;2.80;2.60;;;;;;;;;;5037829;28;20021;-79
2023/05/13 00:25:43;;;;;;;4.85;4.13;;;;;;;;;;5040752;28;20025;-79
2023/05/13 00:28:09;;;;;;;3.75;2.88;;;;;;;;;;5034525;28;20686;-79
2023/05/13 00:30:35;;;;;;;4.70;3.83;;;;;;;;;;5044014;28;20026;-79
2023/05/13 00:33:00;;;;;;;4.90;4.30;;;;;;;;;;5032836;28;20031;-79
2023/05/13 00:35:26;;;;;;;7.30;4.78;;;;;;;;;;5031116;28;20021;-79
2023/05/13 00:37:51;;;;;;;6.15;4.45;;;;;;;;;;5033745;28;20767;-79
2023/05/13 00:40:23;;;;;;;7.88;4.20;;;;;;;;;;5038124;28;20029;-80
2023/05/13 00:42:49;;;;;;;5.28;4.78;;;;;;;;;;5031566;28;20033;-79
2023/05/13 00:45:14;;;;;;;8.02;4.20;;;;;;;;;;5036604;28;20039;-79
2023/05/13 00:47:41;;;;;;;4.95;4.45;;;;;;;;;;5029196;28;20116;-80
2023/05/13 00:50:09;;;;;;;6.72;5.07;;;;;;;;;;5033126;28;20041;-79
2023/05/13 00:52:37;;;;;;;5.85;5.05;;;;;;;;;;5025587;28;20112;-78
2023/05/13 00:55:03;;;;;;;6.10;4.90;;;;;;;;;;5037884;28;20017;-79
2023/05/13 00:57:29;;;;;;;5.28;4.50;;;;;;;;;;5034268;28;20108;-80
2023/05/13 00:59:54;;;;;;;4.13;3.72;;;;;;;;;;5034175;28;20029;-81
2023/05/13 01:02:30;;;;;;;3.70;3.30;;;;;;;;;;5028246;28;20028;-79
2023/05/13 01:05:06;;;;;;;5.63;3.80;;;;;;;;;;5028792;28;20390;-79
2023/05/13 01:07:49;;;;;;;4.40;4.00;;;;;;;;;;5026016;28;20059;-79
2023/05/13 01:10:20;;;;;;;11.30;4.82;;;;;;;;;;5032232;28;20045;-80
2023/05/13 01:12:51;;;;;;;5.90;4.70;;;;;;;;;;5029987;28;20029;-79
2023/05/13 01:15:23;;;;;;;5.53;4.50;;;;;;;;;;5032303;28;20030;-78
2023/05/13 01:17:56;;;;;;;3.83;3.47;;;;;;;;;;5042959;28;20093;-80
2023/05/13 01:20:22;;;;;;;4.68;3.20;;;;;;;;;;5026891;28;20100;-78
2023/05/13 01:22:47;;;;;;;4.32;3.92;;;;;;;;;;5037650;28;20034;-79
2023/05/13 01:25:13;;;;;;;3.30;2.92;;;;;;;;;;5025849;28;20036;-78
2023/05/13 01:27:39;;;;;;;3.40;3.08;;;;;;;;;;5038901;28;20052;-79
2023/05/13 01:30:05;;;;;;;4.57;4.15;;;;;;;;;;5031807;28;20060;-78
2023/05/13 01:32:32;;;;;;;5.32;3.78;;;;;;;;;;5036424;28;20028;-80
2023/05/13 01:34:58;;;;;;;5.28;3.88;;;;;;;;;;5033791;28;20033;-79
2023/05/13 01:37:24;;;;;;;4.10;3.70;;;;;;;;;;5024989;28;20035;-80
2023/05/13 01:39:50;;;;;;;3.33;3.03;;;;;;;;;;5031131;28;20064;-81
2023/05/13 01:42:15;;;;;;;4.97;3.92;;;;;;;;;;5027597;28;20045;-79
2023/05/13 01:44:41;;;;;;;5.57;4.20;;;;;;;;;;5026026;28;20044;-80
2023/05/13 01:47:06;;;;;;;3.90;3.60;;;;;;;;;;5028829;28;20441;-78
2023/05/13 01:49:31;;;;;;;4.43;4.03;;;;;;;;;;5030750;28;20026;-78
2023/05/13 01:51:57;;;;;;;5.50;4.38;;;;;;;;;;5032702;28;20030;-78
2023/05/13 01:54:24;;;;;;;5.18;4.38;;;;;;;;;;5035439;28;20021;-79
2023/05/13 01:56:49;;;;;;;4.95;4.00;;;;;;;;;;5040914;28;20025;-79
2023/05/13 01:59:15;;;;;;;3.65;3.22;;;;;;;;;;5037103;28;20021;-79
2023/05/13 02:01:40;;;;;;;4.57;3.40;;;;;;;;;;5048734;28;20479;-79
2023/05/13 02:04:05;;;;;;;2.95;2.70;;;;;;;;;;5040583;28;20026;-78
2023/05/13 02:06:31;;;;;;;6.40;3.97;;;;;;;;;;5033642;28;20498;-78
2023/05/13 02:08:57;;;;;;;6.35;4.50;;;;;;;;;;5038725;28;20021;-78
2023/05/13 02:11:22;;;;;;;8.88;4.35;;;;;;;;;;5036662;28;20086;-78
2023/05/13 02:13:48;;;;;;;4.90;4.40;;;;;;;;;;5027244;28;20022;-79
2023/05/13 02:16:15;;;;;;;4.85;4.40;;;;;;;;;;5039811;28;20033;-79
2023/05/13 02:18:40;;;;;;;5.85;3.50;;;;;;;;;;5040758;28;20016;-78
2023/05/13 02:21:06;;;;;;;4.13;3.42;;;;;;;;;;5061450;28;20120;-78
2023/05/13 02:23:31;;;;;;;4.90;4.22;;;;;;;;;;5043005;28;20021;-78
2023/05/13 02:25:56;;;;;;;4.10;3.35;;;;;;;;;;5042494;28;20021;-79
2023/05/13 02:28:22;;;;;;;6.45;4.30;;;;;;;;;;5028809;28;20029;-80
2023/05/13 02:30:47;;;;;;;4.75;3.90;;;;;;;;;;5039800;28;20112;-79
2023/05/13 02:33:12;;;;;;;3.53;3.20;;;;;;;;;;5037759;28;20033;-80
2023/05/13 02:35:38;;;;;;;3.58;3.22;;;;;;;;;;5040304;28;20033;-81
2023/05/13 02:38:03;;;;;;;4.13;3.60;;;;;;;;;;5026906;28;20025;-78
2023/05/13 02:40:29;;;;;;;4.72;3.50;;;;;;;;;;5043626;28;20485;-79
2023/05/13 02:42:54;;;;;;;5.50;4.13;;;;;;;;;;5037492;28;20799;-80
2023/05/13 02:45:20;;;;;;;4.30;3.70;;;;;;;;;;5042290;28;20040;-78
2023/05/13 02:47:45;;;;;;;5.70;4.63;;;;;;;;;;5034580;28;20096;-79
2023/05/13 02:50:11;;;;;;;4.80;4.35;;;;;;;;;;5041099;28;20018;-79
2023/05/13 02:52:38;;;;;;;5.63;4.65;;;;;;;;;;5040944;28;20033;-80
2023/05/13 02:55:05;;;;;;;5.50;4.80;;;;;;;;;;5038009;28;20025;-80
2023/05/13 02:57:31;;;;;;;4.78;4.30;;;;;;;;;;5039180;28;20029;-79
2023/05/13 02:59:56;;;;;;;4.20;3.60;;;;;;;;;;5035788;28;20033;-80
2023/05/13 03:02:22;;;;;;;5.22;3.55;;;;;;;;;;5038480;28;20053;-80
2023/05/13 03:04:47;;;;;;;4.68;3.80;;;;;;;;;;5039307;28;20112;-78
2023/05/13 03:07:12;;;;;;;5.85;4.32;;;;;;;;;;5040440;28;20067;-80
2023/05/13 03:09:40;;;;;;;4.40;3.50;;;;;;;;;;5031360;28;20569;-79
2023/05/13 03:12:06;;;;;;;5.95;4.72;;;;;;;;;;5040793;28;20049;-79
2023/05/13 03:14:33;;;;;;;5.32;4.82;;;;;;;;;;5036099;28;20025;-80
2023/05/13 03:16:59;;;;;;;6.75;4.43;;;;;;;;;;5035760;28;20044;-80
2023/05/13 03:19:25;;;;;;;3.92;3.30;;;;;;;;;;5043401;28;20477;-79
2023/05/13 03:21:51;;;;;;;4.78;4.32;;;;;;;;;;5032657;28;20036;-79
2023/05/13 03:24:16;;;;;;;7.63;4.50;;;;;;;;;;5026641;28;20018;-79
2023/05/13 03:26:42;;;;;;;5.15;4.55;;;;;;;;;;5030806;28;20029;-79
2023/05/13 03:29:07;;;;;;;3.85;3.42;;;;;;;;;;5036284;28;20108;-79
2023/05/13 03:31:33;;;;;;;5.70;4.38;;;;;;;;;;5033474;28;20102;-80
2023/05/13 03:33:58;;;;;;;3.88;3.47;;;;;;;;;;5040241;28;20021;-79
2023/05/13 03:36:23;;;;;;;4.57;4.00;;;;;;;;;;5039156;28;20021;-78
2023/05/13 03:38:49;;;;;;;5.88;4.15;;;;;;;;;;5040336;28;20027;-79
2023/05/13 03:41:16;;;;;;;5.88;4.55;;;;;;;;;;5039175;28;20022;-80
2023/05/13 03:43:42;;;;;;;5.05;4.55;;;;;;;;;;5043227;28;20036;-79
2023/05/13 03:46:07;;;;;;;6.03;4.22;;;;;;;;;;5030511;28;20037;-80
2023/05/13 03:48:33;;;;;;;5.15;4.70;;;;;;;;;;5032840;28;20022;-78
2023/05/13 03:50:58;;;;;;;5.47;4.88;;;;;;;;;;5031010;28;20577;-79
2023/05/13 03:53:23;;;;;;;5.75;4.70;;;;;;;;;;5042059;28;20037;-81
2023/05/13 03:55:49;;;;;;;4.20;3.60;;;;;;;;;;5036883;28;20028;-81
2023/05/13 03:58:15;;;;;;;4.43;3.60;;;;;;;;;;5032034;28;20100;-80
2023/05/13 04:00:45;;;;;;;6.15;5.00;;;;;;;;;;5033120;28;20119;-79
2023/05/13 04:03:11;;;;;;;4.15;3.42;;;;;;;;;;5031561;28;20025;-79
2023/05/13 04:05:36;;;;;;;5.95;4.65;;;;;;;;;;5039951;28;20032;-78
2023/05/13 04:08:01;;;;;;;4.78;3.30;;;;;;;;;;5038704;28;20083;-81
2023/05/13 04:10:27;;;;;;;4.65;3.42;;;;;;;;;;5020364;28;20132;-80
2023/05/13 04:12:52;;;;;;;3.17;2.88;;;;;;;;;;5029460;28;20025;-81
2023/05/13 04:15:18;;;;;;;4.28;3.75;;;;;;;;;;5033421;28;20028;-79
2023/05/13 04:17:43;;;;;;;4.45;3.70;;;;;;;;;;5024349;28;20047;-80
2023/05/13 04:20:09;;;;;;;3.92;3.40;;;;;;;;;;5033450;28;20024;-81
2023/05/13 04:22:34;;;;;;;3.88;3.58;;;;;;;;;;5038983;28;20033;-79
2023/05/13 04:25:00;;;;;;;6.88;4.03;;;;;;;;;;5035891;28;20080;-79
2023/05/13 04:27:25;;;;;;;4.82;4.32;;;;;;;;;;5040858;28;20035;-80
2023/05/13 04:29:51;;;;;;;4.50;4.10;;;;;;;;;;5031605;28;20193;-78
2023/05/13 04:32:20;;;;;;;4.88;4.28;;;;;;;;;;5033642;28;20025;-78
2023/05/13 04:34:49;;;;;;;4.75;4.30;;;;;;;;;;5033939;28;20030;-79
2023/05/13 04:37:15;;;;;;;4.88;4.15;;;;;;;;;;5029549;28;20025;-78
2023/05/13 04:39:42;;;;;;;5.00;4.40;;;;;;;;;;5029769;28;20104;-80
2023/05/13 04:42:07;;;;;;;7.55;4.63;;;;;;;;;;5030371;28;20263;-79
2023/05/13 04:44:33;;;;;;;4.18;3.72;;;;;;;;;;5028762;28;20620;-80
2023/05/13 04:46:59;;;;;;;4.75;4.25;;;;;;;;;;5032286;28;20029;-79
2023/05/13 04:49:25;;;;;;;6.18;4.25;;;;;;;;;;5025706;28;20053;-79
2023/05/13 04:51:52;;;;;;;6.05;4.45;;;;;;;;;;5035087;28;20067;-78
2023/05/13 04:54:17;;;;;;;6.25;4.70;;;;;;;;;;5034342;28;20036;-78
2023/05/13 04:56:43;;;;;;;6.00;4.40;;;;;;;;;;5027502;28;20120;-79
2023/05/13 04:59:08;;;;;;;6.13;4.53;;;;;;;;;;5025574;28;20532;-79
2023/05/13 05:01:34;;;;;;;5.32;4.72;;;;;;;;;;5048879;28;20044;-78
2023/05/13 05:03:59;;;;;;;7.30;5.03;;;;;;;;;;5033770;28;20017;-78
2023/05/13 05:06:25;;;;;;;7.03;4.90;;;;;;;;;;5036113;28;20036;-79
2023/05/13 05:08:50;;;;;;;8.88;5.22;;;;;;;;;;5040284;28;20025;-78
2023/05/13 05:11:16;;;;;;;6.28;5.00;;;;;;;;;;5029673;28;20433;-77
2023/05/13 05:13:41;;;;;;;6.25;5.00;;;;;;;;;;5037780;28;20382;-79
2023/05/13 05:16:07;;;;;;;8.48;5.00;;;;;;;;;;5034228;28;20025;-79
2023/05/13 05:18:34;;;;;;;7.32;5.15;;;;;;;;;;5034235;28;20477;-79
2023/05/13 05:21:00;;;;;;;9.85;5.03;;;;;;;;;;5029300;28;20429;-80
2023/05/13 05:23:25;;;;;;;5.82;5.10;;;;;;;;;;5026651;28;20521;-78
2023/05/13 05:25:51;;;;;;;5.68;4.88;;;;;;;;;;5030242;28;20018;-78
2023/05/13 05:28:16;;;;;;;7.00;4.93;;;;;;;;;;5026126;28;20029;-78
2023/05/13 05:30:42;;;;;;;7.43;5.30;;;;;;;;;;5026463;28;20374;-77
2023/05/13 05:33:07;;;;;;;8.75;6.10;;;;;;;;;;5022645;28;20021;-78
2023/05/13 05:35:37;;;;;;;7.35;5.70;;;;;;;;;;5015157;28;20104;-79
2023/05/13 05:38:06;;;;;;;7.07;5.50;;;;;;;;;;5019738;28;20023;-78
2023/05/13 05:40:33;;;;;;;8.55;5.47;;;;;;;;;;5028235;28;20079;-78
2023/05/13 05:42:59;;;;;;;7.07;5.82;;;;;;;;;;5026902;28;20033;-78
2023/05/13 05:45:24;;;;;;;9.15;6.60;;;;;;;;;;5018154;28;20025;-79
2023/05/13 05:47:49;;;;;;;9.65;6.55;;;;;;;;;;5021525;28;20022;-79
2023/05/13 05:50:15;;;;;;;8.80;6.53;;;;;;;;;;5022173;28;20494;-78
2023/05/13 05:52:40;;;;;;;8.98;6.32;;;;;;;;;;5026763;28;20163;-79
2023/05/13 05:55:06;;;;;;;8.23;6.35;;;;;;;;;;5023450;28;20032;-79
2023/05/13 05:57:32;;;;;;;8.52;6.65;;;;;;;;;;5028285;28;20032;-76
2023/05/13 05:59:57;;;;;;;7.07;5.57;;;;;;;;;;5031722;28;20480;-76
2023/05/13 06:02:22;;;;;;;7.78;6.32;;;;;;;;;;5022528;28;20022;-77
2023/05/13 06:04:48;;;;;;;6.45;5.70;;;;;;;;;;5031625;28;20029;-76
2023/05/13 06:07:13;;;;;;;6.53;5.43;;;;;;;;;;5024469;28;20406;-76
2023/05/13 06:09:39;;;;;;;8.00;5.60;;;;;;;;;;5032555;28;20475;-77
2023/05/13 06:12:05;;;;;;;7.55;5.55;;;;;;;;;;5027788;28;20032;-76
2023/05/13 06:14:30;;;;;;;6.38;5.18;;;;;;;;;;5035485;28;20139;-79
2023/05/13 06:16:55;;;;;;;8.18;5.57;;;;;;;;;;5031034;28;20029;-78
2023/05/13 06:19:21;;;;;;;6.45;5.57;;;;;;;;;;5029103;28;20025;-77
2023/05/13 06:21:47;;;;;;;6.75;5.68;;;;;;;;;;5030468;28;20033;-79
2023/05/13 06:24:12;;;;;;;7.45;5.30;;;;;;;;;;5031165;28;20059;-78
2023/05/13 06:26:38;;;;;;;6.07;5.07;;;;;;;;;;5030198;28;20128;-77
2023/05/13 06:29:03;;;;;;;6.68;5.38;;;;;;;;;;5031376;28;20033;-79
2023/05/13 06:31:29;;;;;;;6.90;5.45;;;;;;;;;;5046229;28;20463;-77
2023/05/13 06:33:54;;;;;;;6.22;5.22;;;;;;;;;;5027895;28;20048;-77
2023/05/13 06:36:19;;;;;;;7.13;5.10;;;;;;;;;;5037113;28;20029;-78
2023/05/13 06:38:45;;;;;;;6.63;4.70;;;;;;;;;;5031741;28;20120;-78
2023/05/13 06:41:10;;;;;;;6.75;5.03;;;;;;;;;;5028871;28;20029;-77
2023/05/13 06:43:35;;;;;;;4.55;4.15;;;;;;;;;;5036765;28;20078;-78
2023/05/13 06:46:01;;;;;;;6.57;4.97;;;;;;;;;;5035310;28;20393;-78
2023/05/13 06:48:26;;;;;;;5.40;4.85;;;;;;;;;;5036222;28;20112;-79
2023/05/13 06:50:51;;;;;;;6.25;4.60;;;;;;;;;;5036420;28;20050;-78
2023/05/13 06:53:17;;;;;;;6.15;5.50;;;;;;;;;;5051520;28;20021;-78
2023/05/13 06:55:42;;;;;;;6.25;4.45;;;;;;;;;;5036551;28;20033;-78
2023/05/13 06:58:09;;;;;;;7.70;4.93;;;;;;;;;;5046059;28;20090;-77
2023/05/13 07:00:39;;;;;;;5.57;4.72;;;;;;;;;;5031652;28;20037;-77
2023/05/13 07:03:06;;;;;;;6.35;5.20;;;;;;;;;;5032679;28;20021;-78
2023/05/13 07:05:32;;;;;;;5.70;4.95;;;;;;;;;;5032284;28;20037;-79
2023/05/13 07:07:58;;;;;;;5.97;4.47;;;;;;;;;;5039214;28;20033;-78
2023/05/13 07:10:23;;;;;;;5.45;4.60;;;;;;;;;;5036884;28;20029;-77
2023/05/13 07:12:48;;;;;;;6.25;4.28;;;;;;;;;;5037078;28;20469;-78
2023/05/13 07:15:15;;;;;;;4.82;3.97;;;;;;;;;;5036844;28;20359;-77
2023/05/13 07:17:40;;;;;;;5.10;4.60;;;;;;;;;;5030826;28;20029;-79
2023/05/13 07:20:08;;;;;;;5.30;4.80;;;;;;;;;;5042412;28;20462;-78
2023/05/13 07:22:34;;;;;;;6.45;4.70;;;;;;;;;;5029135;28;20022;-77
2023/05/13 07:25:00;;;;;;;5.65;4.40;;;;;;;;;;5036262;28;20029;-79
2023/05/13 07:27:25;;;;;;;8.90;4.72;;;;;;;;;;5026194;28;20081;-77
2023/05/13 07:29:50;;;;;;;5.07;4.07;;;;;;;;;;5029794;28;20021;-77
2023/05/13 07:32:16;;;;;;;5.13;3.97;;;;;;;;;;5036512;28;20021;-78
2023/05/13 07:34:41;;;;;;;5.57;4.78;;;;;;;;;;5030857;28;20047;-78
2023/05/13 07:37:07;;;;;;;5.95;4.93;;;;;;;;;;5036515;28;20581;-77
2023/05/13 07:39:32;;;;;;;6.78;5.03;;;;;;;;;;5035690;28;20025;-78
2023/05/13 07:41:57;;;;;;;5.38;4.32;;;;;;;;;;5046628;28;20071;-78
2023/05/13 07:44:23;;;;;;;4.97;4.47;;;;;;;;;;5034725;28;20746;-78
2023/05/13 07:46:52;;;;;;;5.05;4.47;;;;;;;;;;5028575;28;20025;-78
2023/05/13 07:49:17;;;;;;;5.50;5.00;;;;;;;;;;5041756;28;20025;-77
2023/05/13 07:51:43;;;;;;;4.90;4.40;;;;;;;;;;5033587;28;20030;-77
2023/05/13 07:54:09;;;;;;;6.75;5.07;;;;;;;;;;5035602;28;20112;-78
2023/05/13 07:56:34;;;;;;;5.78;5.18;;;;;;;;;;5031678;28;20137;-78
2023/05/13 07:59:00;;;;;;;6.85;4.53;;;;;;;;;;5030814;28;20029;-78
2023/05/13 08:01:27;;;;;;;6.97;5.40;;;;;;;;;;5026140;28;20032;-77
2023/05/13 08:03:52;;;;;;;6.25;4.95;;;;;;;;;;5044829;28;20029;-78
2023/05/13 08:06:17;;;;;;;6.35;4.50;;;;;;;;;;5044963;28;20013;-77
2023/05/13 08:08:43;;;;;;;5.25;4.50;;;;;;;;;;5038220;28;20075;-78
2023/05/13 08:11:08;;;;;;;5.70;5.10;;;;;;;;;;5024858;28;20037;-77
2023/05/13 08:13:33;;;;;;;5.35;4.78;;;;;;;;;;5036237;28;20035;-78
2023/05/13 08:16:01;;;;;;;6.07;5.35;;;;;;;;;;5041684;28;20042;-77
2023/05/13 08:18:26;;;;;;;6.55;4.85;;;;;;;;;;5033403;28;20025;-78
2023/05/13 08:20:51;;;;;;;8.80;5.40;;;;;;;;;;5033213;28;20030;-78
2023/05/13 08:23:17;;;;;;;7.00;5.90;;;;;;;;;;5028033;28;20021;-77
2023/05/13 08:25:42;;;;;;;5.93;5.05;;;;;;;;;;5035967;28;20052;-79
2023/05/13 08:28:07;;;;;;;6.70;5.70;;;;;;;;;;5044212;28;20021;-77
2023/05/13 08:30:33;;;;;;;5.68;4.85;;;;;;;;;;5043548;28;20120;-78
2023/05/13 08:32:58;;;;;;;6.53;5.60;;;;;;;;;;5032824;28;20029;-77
2023/05/13 08:35:24;;;;;;;9.18;5.63;;;;;;;;;;5034970;28;20455;-77
2023/05/13 08:37:50;;;;;;;7.70;5.47;;;;;;;;;;5045976;28;20029;-80
2023/05/13 08:40:16;;;;;;;5.70;4.88;;;;;;;;;;5026391;28;20025;-78
2023/05/13 08:42:42;;;;;;;6.75;5.47;;;;;;;;;;5051433;28;20433;-77
2023/05/13 08:45:09;;;;;;;6.10;4.80;;;;;;;;;;5034359;28;20347;-77
2023/05/13 08:47:49;;;;;;;6.07;4.20;;;;;;;;;;5032407;28;20025;-78
2023/05/13 08:50:15;;;;;;;;;;;;;;;;;;5026859;28;20022;-78
2023/05/13 08:52:42;;;;;;;5.32;4.82;;;;;;;;;;5023721;28;19999;-78
2023/05/13 08:55:07;;;;;;;4.10;3.70;;;;;;;;;;5025804;28;20061;-78
2023/05/13 08:57:33;;;;;;;5.28;4.63;;;;;;;;;;5030771;28;20119;-78
2023/05/13 08:59:58;;;;;;;8.35;5.35;;;;;;;;;;5029654;28;20021;-78
2023/05/13 09:02:24;;;;;;;7.82;4.45;;;;;;;;;;5022406;28;20124;-78
2023/05/13 09:04:52;;;;;;;6.55;4.97;;;;;;;;;;5025309;28;20147;-78
2023/05/13 09:07:17;;;;;;;4.70;4.25;;;;;;;;;;5028421;28;20025;-78
2023/05/13 09:09:44;;;;;;;5.30;4.68;;;;;;;;;;5037076;28;20033;-77
2023/05/13 09:12:09;;;;;;;5.55;4.85;;;;;;;;;;5035428;28;20053;-77
2023/05/13 09:14:36;;;;;;;6.85;4.60;;;;;;;;;;5026241;28;20053;-78
2023/05/13 09:17:02;;;;;;;4.22;3.90;;;;;;;;;;5028461;28;20033;-76
2023/05/13 09:19:28;;;;;;;5.85;4.22;;;;;;;;;;5023664;28;20025;-77
2023/05/13 09:21:53;;;;;;;4.85;4.03;;;;;;;;;;5042235;28;20028;-78
2023/05/13 09:24:20;;;;;;;6.53;4.15;;;;;;;;;;5032847;28;20494;-77
2023/05/13 09:26:47;;;;;;;4.28;3.92;;;;;;;;;;5023908;28;20035;-77
2023/05/13 09:29:29;;;;;;;4.18;3.83;;;;;;;;;;5033461;28;20021;-77
2023/05/13 09:31:57;;;;;;;6.07;4.57;;;;;;;;;;5047215;28;20747;-77
2023/05/13 09:34:27;;;;;;;4.70;4.30;;;;;;;;;;5029416;28;20036;-77
2023/05/13 09:36:59;;;;;;;5.32;4.25;;;;;;;;;;5032985;28;20120;-78
2023/05/13 09:39:25;;;;;;;5.50;4.30;;;;;;;;;;5039072;28;20020;-77
2023/05/13 09:41:52;;;;;;;4.15;3.75;;;;;;;;;;5037853;28;20501;-78
2023/05/13 09:44:17;;;;;;;4.40;4.00;;;;;;;;;;5037202;28;20394;-77
2023/05/13 09:46:42;;;;;;;4.95;4.20;;;;;;;;;;5027465;28;20025;-78
2023/05/13 09:49:11;;;;;;;5.20;4.30;;;;;;;;;;5015206;28;20029;-78
2023/05/13 09:51:37;;;;;;;4.70;4.10;;;;;;;;;;5015347;28;20049;-77
2023/05/13 09:54:06;;;;;;;4.10;3.47;;;;;;;;;;5027609;28;20217;-77
2023/05/13 09:56:35;;;;;;;6.07;4.25;;;;;;;;;;5017085;28;20483;-77
2023/05/13 09:59:02;;;;;;;5.72;5.00;;;;;;;;;;5016067;28;20029;-78
2023/05/13 10:01:28;;;;;;;6.28;5.43;;;;;;;;;;5017045;28;20072;-77
2023/05/13 10:04:00;;;;;;;7.97;5.40;;;;;;;;;;5024214;28;20112;-77
2023/05/13 10:06:28;;;;;;;5.30;4.80;;;;;;;;;;5016348;28;20116;-78
2023/05/13 10:09:03;;;;;;;6.47;4.97;;;;;;;;;;5017268;28;20022;-78
2023/05/13 10:11:32;;;;;;;8.13;5.20;;;;;;;;;;5019111;28;20116;-76
2023/05/13 10:14:01;;;;;;;10.05;5.07;;;;;;;;;;5022972;28;20064;-77
2023/05/13 10:16:26;;;;;;;6.47;5.22;;;;;;;;;;5027571;28;20601;-77
2023/05/13 10:18:52;;;;;;;5.45;4.90;;;;;;;;;;5022033;28;20017;-77
2023/05/13 10:21:20;;;;;;;7.93;5.35;;;;;;;;;;5021236;28;20041;-77
2023/05/13 10:23:47;;;;;;;7.95;5.50;;;;;;;;;;5025277;28;20032;-77
2023/05/13 10:26:13;;;;;;;5.60;4.97;;;;;;;;;;5026581;28;20060;-77
2023/05/13 10:28:39;;;;;;;6.40;5.70;;;;;;;;;;5038565;28;20804;-76
2023/05/13 10:31:04;;;;;;;6.10;5.03;;;;;;;;;;5021467;28;20029;-78
2023/05/13 10:33:30;;;;;;;6.32;4.82;;;;;;;;;;5027333;28;20017;-77
2023/05/13 10:36:25;;;;;;;9.43;4.20;;;;;;;;;;5022244;28;20533;-78
2023/05/13 10:39:16;;;;;;;3.78;3.25;;;;;;;;;;5017622;28;20160;-77
2023/05/13 10:42:01;;;;;;;5.65;3.22;;;;;;;;;;5025522;28;20021;-77
2023/05/13 10:44:26;;;;;;;3.85;3.20;;;;;;;;;;5023685;28;20717;-78
2023/05/13 10:46:55;;;;;;;3.42;3.13;;;;;;;;;;5020432;28;20116;-77
2023/05/13 10:49:21;;;;;;;3.63;3.33;;;;;;;;;;5022495;28;20017;-79
2023/05/13 10:51:48;;;;;;;5.32;3.08;;;;;;;;;;5020261;28;20075;-77
2023/05/13 10:54:22;;;;;;;3.33;2.95;;;;;;;;;;5015842;28;20104;-77
2023/05/13 10:56:59;;;;;;;4.00;3.15;;;;;;;;;;5017342;28;20021;-77
2023/05/13 10:59:29;;;;;;;3.45;2.90;;;;;;;;;;5022772;28;20757;-77
2023/05/13 11:01:54;;;;;;;3.45;3.00;;;;;;;;;;5019022;28;20133;-77
2023/05/13 11:04:22;;;;;;;4.25;2.95;;;;;;;;;;5016725;28;20136;-77
2023/05/13 11:06:48;;;;;;;18.92;4.32;;;;;;;;;;5015480;28;20056;-77
2023/05/13 11:09:19;;;;;;;3.88;2.90;;;;;;;;;;5020780;28;20091;-77
2023/05/13 11:11:52;;;;;;;4.45;3.13;;;;;;;;;;5021561;28;20049;-78
2023/05/13 11:14:21;;;;;;;5.13;3.45;;;;;;;;;;5024757;28;20028;-77
2023/05/13 11:17:05;;;;;;;5.47;3.53;;;;;;;;;;5030951;28;20111;-78
2023/05/13 11:19:34;;;;;;;4.18;3.35;;;;;;;;;;5036144;28;20033;-78
2023/05/13 11:22:11;;;;;;;5.57;3.20;;;;;;;;;;5036292;28;20059;-78
2023/05/13 11:24:36;;;;;;;3.72;3.10;;;;;;;;;;5041607;28;20032;-78
2023/05/13 11:27:19;;;;;;;3.33;2.95;;;;;;;;;;5039743;28;20021;-78
2023/05/13 11:29:53;;;;;;;3.83;3.30;;;;;;;;;;5039559;28;20014;-78
2023/05/13 11:32:52;;;;;;;4.65;3.47;;;;;;;;;;5045563;28;20149;-78
2023/05/13 11:35:31;;;;;;;3.67;3.10;;;;;;;;;;5039012;28;20636;-77
2023/05/13 11:38:01;;;;;;;4.65;3.30;;;;;;;;;;5043034;28;20048;-77
2023/05/13 11:40:34;;;;;;;4.47;3.00;;;;;;;;;;5038637;28;20433;-77
2023/05/13 11:43:00;;;;;;;3.90;3.60;;;;;;;;;;5043911;28;20025;-77
2023/05/13 11:45:26;;;;;;;3.70;3.35;;;;;;;;;;5060409;28;20045;-77
2023/05/13 11:47:53;;;;;;;3.50;3.20;;;;;;;;;;5041115;28;20100;-78
2023/05/13 11:50:20;;;;;;;6.78;4.07;;;;;;;;;;5040985;28;20463;-78
2023/05/13 11:52:53;;;;;;;4.20;3.80;;;;;;;;;;5036175;28;20034;-78
2023/05/13 11:55:28;;;;;;;5.78;3.80;;;;;;;;;;5045263;28;20037;-78
2023/05/13 11:57:54;;;;;;;4.47;3.70;;;;;;;;;;5059011;28;20025;-77
2023/05/13 12:00:25;;;;;;;4.50;3.92;;;;;;;;;;5047063;28;20060;-77
2023/05/13 12:02:51;;;;;;;4.65;4.03;;;;;;;;;;5037619;28;20108;-78
2023/05/13 12:05:17;;;;;;;6.40;4.43;;;;;;;;;;5046051;28;20018;-78
2023/05/13 12:07:42;;;;;;;6.63;4.20;;;;;;;;;;5037044;28;20030;-78
2023/05/13 12:10:08;;;;;;;4.82;3.97;;;;;;;;;;5027488;28;20035;-79
2023/05/13 12:12:36;;;;;;;4.50;3.83;;;;;;;;;;5019722;28;20081;-78
2023/05/13 12:15:03;;;;;;;3.72;3.25;;;;;;;;;;5025008;28;20473;-79
2023/05/13 12:17:30;;;;;;;4.43;4.03;;;;;;;;;;5028887;28;20036;-78
2023/05/13 12:20:15;;;;;;;4.40;3.78;;;;;;;;;;5020824;28;20053;-77
2023/05/13 12:22:43;;;;;;;4.55;3.85;;;;;;;;;;5039620;28;20021;-78
2023/05/13 12:25:34;;;;;;;4.32;3.92;;;;;;;;;;5022218;28;20029;-79
2023/05/13 12:28:16;;;;;;;3.63;3.33;;;;;;;;;;5031322;28;20016;-77
2023/05/13 12:30:53;;;;;;;7.32;3.33;;;;;;;;;;5020243;28;20115;-79
2023/05/13 12:33:23;;;;;;;4.03;3.55;;;;;;;;;;5045291;28;20032;-77
2023/05/13 12:35:51;;;;;;;4.50;3.80;;;;;;;;;;5035968;28;20029;-78
2023/05/13 12:38:19;;;;;;;3.85;3.05;;;;;;;;;;5034848;28;20029;-76
2023/05/13 12:40:45;;;;;;;4.10;3.70;;;;;;;;;;5040682;28;20027;-78
2023/05/13 12:43:12;;;;;;;5.55;3.88;;;;;;;;;;5037898;28;20025;-78
2023/05/13 12:45:39;;;;;;;4.22;3.70;;;;;;;;;;5047259;28;20127;-76
2023/05/13 12:48:04;;;;;;;4.43;3.60;;;;;;;;;;5031707;28;20037;-78
2023/05/13 12:50:30;;;;;;;5.05;3.85;;;;;;;;;;5045956;28;20039;-79
2023/05/13 12:52:59;;;;;;;5.35;3.45;;;;;;;;;;5035987;28;20036;-78
2023/05/13 12:55:26;;;;;;;5.30;3.38;;;;;;;;;;5034204;28;20025;-77
2023/05/13 12:58:02;;;;;;;4.05;3.75;;;;;;;;;;5031927;28;20117;-77
2023/05/13 13:00:29;;;;;;;4.55;3.20;;;;;;;;;;5032451;28;20033;-78
2023/05/13 13:02:55;;;;;;;4.53;3.60;;;;;;;;;;5036744;28;20385;-77
2023/05/13 13:05:22;;;;;;;4.60;3.50;;;;;;;;;;5038219;28;20469;-77
2023/05/13 13:07:48;;;;;;;4.35;3.63;;;;;;;;;;5028868;28;20512;-78
2023/05/13 13:10:14;;;;;;;4.10;3.58;;;;;;;;;;5035420;28;20025;-77
2023/05/13 13:12:39;;;;;;;4.00;3.60;;;;;;;;;;5032050;28;20393;-78
2023/05/13 13:15:09;;;;;;;4.55;3.80;;;;;;;;;;5025520;28;20025;-76
2023/05/13 13:17:34;;;;;;;4.25;3.85;;;;;;;;;;5038317;28;20486;-77
2023/05/13 13:20:00;;;;;;;4.03;3.70;;;;;;;;;;5036066;28;20079;-77
2023/05/13 13:22:26;;;;;;;4.10;3.08;;;;;;;;;;5035071;28;20025;-77
2023/05/13 13:24:51;;;;;;;4.55;3.60;;;;;;;;;;5027739;28;20442;-78
2023/05/13 13:27:17;;;;;;;3.85;3.22;;;;;;;;;;5034539;28;20913;-78
2023/05/13 13:29:42;;;;;;;5.45;3.40;;;;;;;;;;5030861;28;20098;-77
2023/05/13 13:32:08;;;;;;;5.75;3.53;;;;;;;;;;5027458;28;20032;-77
2023/05/13 13:34:33;;;;;;;4.07;3.63;;;;;;;;;;5030968;28;20482;-76
2023/05/13 13:36:58;;;;;;;3.45;3.15;;;;;;;;;;5026655;28;20025;-78
2023/05/13 13:39:24;;;;;;;3.78;3.47;;;;;;;;;;5036797;28;20039;-77
2023/05/13 13:41:49;;;;;;;4.72;3.80;;;;;;;;;;5027148;28;20073;-77
2023/05/13 13:44:14;;;;;;;4.30;3.90;;;;;;;;;;5027294;28;20028;-77
2023/05/13 13:46:40;;;;;;;3.90;3.17;;;;;;;;;;5040597;28;20021;-76
2023/05/13 13:49:05;;;;;;;4.13;3.67;;;;;;;;;;5035648;28;20029;-76
2023/05/13 13:51:31;;;;;;;4.07;3.67;;;;;;;;;;5037136;28;20045;-77
2023/05/13 13:54:01;;;;;;;3.70;3.40;;;;;;;;;;5035205;28;20029;-76
2023/05/13 13:56:27;;;;;;;4.15;3.38;;;;;;;;;;5030508;28;20105;-75
2023/05/13 13:58:52;;;;;;;7.32;3.28;;;;;;;;;;5031464;28;20199;-76
2023/05/13 14:01:18;;;;;;;3.92;3.50;;;;;;;;;;5040438;28;20033;-77
2023/05/13 14:03:43;;;;;;;4.10;3.38;;;;;;;;;;5041622;28;20491;-78
2023/05/13 14:06:09;;;;;;;3.97;3.25;;;;;;;;;;5033494;28;20529;-76
2023/05/13 14:08:35;;;;;;;3.70;3.30;;;;;;;;;;5040661;28;20037;-78
2023/05/13 14:11:00;;;;;;;3.90;2.95;;;;;;;;;;5037864;28;20497;-78
2023/05/13 14:13:26;;;;;;;3.90;3.42;;;;;;;;;;5040178;28;20527;-78
2023/05/13 14:15:51;;;;;;;4.55;3.50;;;;;;;;;;5037532;28;20059;-77
2023/05/13 14:18:16;;;;;;;3.65;3.10;;;;;;;;;;5031414;28;20382;-78
2023/05/13 14:20:42;;;;;;;3.53;3.20;;;;;;;;;;5028489;28;20100;-78
2023/05/13 14:23:07;;;;;;;4.18;2.92;;;;;;;;;;5049691;28;20384;-79
2023/05/13 14:25:33;;;;;;;3.75;3.08;;;;;;;;;;5040602;28;20025;-79
2023/05/13 14:27:58;;;;;;;3.03;2.83;;;;;;;;;;5044687;28;20018;-78
2023/05/13 14:30:26;;;;;;;3.95;3.15;;;;;;;;;;5034800;28;20494;-80
2023/05/13 14:32:51;;;;;;;3.65;3.25;;;;;;;;;;5056625;28;20024;-78
2023/05/13 14:35:17;;;;;;;2.97;2.78;;;;;;;;;;5033864;28;20029;-78
2023/05/13 14:37:43;;;;;;;2.70;2.47;;;;;;;;;;5033113;28;20576;-80
2023/05/13 14:40:08;;;;;;;3.08;2.47;;;;;;;;;;5035622;28;20029;-79
2023/05/13 14:42:34;;;;;;;2.72;2.53;;;;;;;;;;5039964;28;20026;-79